sensor_id;sensor_type;location;lat;lon;timestamp;temperature;humidity
22114;DHT22;11223;49.968;9.062;2023-08-07T00:00:21;13.00;99.90
22114;DHT22;11223;49.968;9.062;2023-08-07T00:02:46;13.00;99.90
22114;DHT22;11223;49.968;9.062;2023-08-07T00:05:12;13.00;99.90
22114;DHT22;11223;49.968;9.062;2023-08-07T00:07:37;12.90;99.90
22114;DHT22;11223;49.968;9.062;2023-08-07T00:10:03;12.90;99.90
22114;DHT22;11223;49.968;9.062;2023-08-07T00:12:29;12.90;99.90
22114;DHT22;11223;49.968;9.062;2023-08-07T00:14:54;12.90;99.90
22114;DHT22;11223;49.968;9.062;2023-08-07T00:17:19;12.90;99.90
22114;DHT22;11223;49.968;9.062;2023-08-07T00:19:45;12.90;99.90
22114;DHT22;11223;49.968;9.062;2023-08-07T00:22:10;12.90;99.90
22114;DHT22;11223;49.968;9.062;2023-08-07T00:24:36;13.00;99.90
22114;DHT22;11223;49.968;9.062;2023-08-07T00:27:01;12.90;99.90
22114;DHT22;11223;49.968;9.062;2023-08-07T00:29:28;12.90;99.90
22114;DHT22;11223;49.968;9.062;2023-08-07T00:31:53;12.90;99.90
22114;DHT22;11223;49.968;9.062;2023-08-07T00:34:19;12.90;99.90
22114;DHT22;11223;49.968;9.062;2023-08-07T00:36:44;12.90;99.90
22114;DHT22;11223;49.968;9.062;2023-08-07T00:39:10;12.90;99.90
22114;DHT22;11223;49.968;9.062;2023-08-07T00:41:36;12.90;99.90
22114;DHT22;11223;49.968;9.062;2023-08-07T00:44:01;12.90;99.90
22114;DHT22;11223;49.968;9.062;2023-08-07T00:46:27;12.90;99.90
22114;DHT22;11223;49.968;9.062;2023-08-07T00:48:54;12.90;99.90
22114;DHT22;11223;49.968;9.062;2023-08-07T00:51:20;12.90;99.90
22114;DHT22;11223;49.968;9.062;2023-08-07T00:53:45;12.90;99.90
22114;DHT22;11223;49.968;9.062;2023-08-07T00:56:12;12.90;99.90
22114;DHT22;11223;49.968;9.062;2023-08-07T00:58:37;12.90;99.90
22114;DHT22;11223;49.968;9.062;2023-08-07T01:01:04;12.90;99.90
22114;DHT22;11223;49.968;9.062;2023-08-07T01:03:30;12.90;99.90
22114;DHT22;11223;49.968;9.062;2023-08-07T01:05:55;12.90;99.90
22114;DHT22;11223;49.968;9.062;2023-08-07T01:08:21;12.90;99.90
22114;DHT22;11223;49.968;9.062;2023-08-07T01:13:24;12.80;99.90
22114;DHT22;11223;49.968;9.062;2023-08-07T01:15:54;12.90;99.90
22114;DHT22;11223;49.968;9.062;2023-08-07T01:18:21;12.80;99.90
22114;DHT22;11223;49.968;9.062;2023-08-07T01:20:47;12.80;99.90
22114;DHT22;11223;49.968;9.062;2023-08-07T01:23:12;12.80;99.90
22114;DHT22;11223;49.968;9.062;2023-08-07T01:25:37;12.80;99.90
22114;DHT22;11223;49.968;9.062;2023-08-07T01:28:22;12.80;99.90
22114;DHT22;11223;49.968;9.062;2023-08-07T01:30:51;12.70;99.90
22114;DHT22;11223;49.968;9.062;2023-08-07T01:33:31;12.70;99.90
22114;DHT22;11223;49.968;9.062;2023-08-07T01:35:58;12.60;99.90
22114;DHT22;11223;49.968;9.062;2023-08-07T01:38:26;12.60;99.90
22114;DHT22;11223;49.968;9.062;2023-08-07T01:40:52;12.60;99.90
22114;DHT22;11223;49.968;9.062;2023-08-07T01:43:18;12.70;99.90
22114;DHT22;11223;49.968;9.062;2023-08-07T01:45:44;12.60;99.90
22114;DHT22;11223;49.968;9.062;2023-08-07T01:48:10;12.60;99.90
22114;DHT22;11223;49.968;9.062;2023-08-07T01:50:37;12.60;99.90
22114;DHT22;11223;49.968;9.062;2023-08-07T01:53:03;12.60;99.90
22114;DHT22;11223;49.968;9.062;2023-08-07T01:55:29;12.60;99.90
22114;DHT22;11223;49.968;9.062;2023-08-07T01:57:54;12.60;99.90
22114;DHT22;11223;49.968;9.062;2023-08-07T02:00:20;12.60;99.90
22114;DHT22;11223;49.968;9.062;2023-08-07T02:02:45;12.60;99.90
22114;DHT22;11223;49.968;9.062;2023-08-07T02:05:12;12.60;99.90
22114;DHT22;11223;49.968;9.062;2023-08-07T02:07:38;12.60;99.90
22114;DHT22;11223;49.968;9.062;2023-08-07T02:10:03;12.60;99.90
22114;DHT22;11223;49.968;9.062;2023-08-07T02:12:29;12.60;99.90
22114;DHT22;11223;49.968;9.062;2023-08-07T02:14:57;12.50;99.90
22114;DHT22;11223;49.968;9.062;2023-08-07T02:17:24;12.60;99.90
22114;DHT22;11223;49.968;9.062;2023-08-07T02:19:49;12.60;99.90
22114;DHT22;11223;49.968;9.062;2023-08-07T02:22:15;12.60;99.90
22114;DHT22;11223;49.968;9.062;2023-08-07T02:24:40;12.60;99.90
22114;DHT22;11223;49.968;9.062;2023-08-07T02:27:06;12.60;99.90
22114;DHT22;11223;49.968;9.062;2023-08-07T02:29:31;12.60;99.90
22114;DHT22;11223;49.968;9.062;2023-08-07T02:32:02;12.60;99.90
22114;DHT22;11223;49.968;9.062;2023-08-07T02:34:31;12.60;99.90
22114;DHT22;11223;49.968;9.062;2023-08-07T02:36:56;12.60;99.90
22114;DHT22;11223;49.968;9.062;2023-08-07T02:39:22;12.50;99.90
22114;DHT22;11223;49.968;9.062;2023-08-07T02:41:47;12.60;99.90
22114;DHT22;11223;49.968;9.062;2023-08-07T02:44:13;12.50;99.90
22114;DHT22;11223;49.968;9.062;2023-08-07T02:46:38;12.50;99.90
22114;DHT22;11223;49.968;9.062;2023-08-07T02:49:04;12.60;99.90
22114;DHT22;11223;49.968;9.062;2023-08-07T02:51:30;12.50;99.90
22114;DHT22;11223;49.968;9.062;2023-08-07T02:53:55;12.50;99.90
22114;DHT22;11223;49.968;9.062;2023-08-07T02:56:21;12.50;99.90
22114;DHT22;11223;49.968;9.062;2023-08-07T02:58:46;12.50;99.90
22114;DHT22;11223;49.968;9.062;2023-08-07T03:01:12;12.50;99.90
22114;DHT22;11223;49.968;9.062;2023-08-07T03:03:37;12.50;99.90
22114;DHT22;11223;49.968;9.062;2023-08-07T03:06:03;12.40;99.90
22114;DHT22;11223;49.968;9.062;2023-08-07T03:08:28;12.50;99.90
22114;DHT22;11223;49.968;9.062;2023-08-07T03:10:56;12.40;99.90
22114;DHT22;11223;49.968;9.062;2023-08-07T03:13:22;12.40;99.90
22114;DHT22;11223;49.968;9.062;2023-08-07T03:15:48;12.40;99.90
22114;DHT22;11223;49.968;9.062;2023-08-07T03:18:15;12.40;99.90
22114;DHT22;11223;49.968;9.062;2023-08-07T03:20:41;12.40;99.90
22114;DHT22;11223;49.968;9.062;2023-08-07T03:23:07;12.40;99.90
22114;DHT22;11223;49.968;9.062;2023-08-07T03:25:32;12.30;99.90
22114;DHT22;11223;49.968;9.062;2023-08-07T03:27:57;12.30;99.90
22114;DHT22;11223;49.968;9.062;2023-08-07T03:30:23;12.30;99.90
22114;DHT22;11223;49.968;9.062;2023-08-07T03:32:48;12.30;99.90
22114;DHT22;11223;49.968;9.062;2023-08-07T03:35:15;12.30;99.90
22114;DHT22;11223;49.968;9.062;2023-08-07T03:37:40;12.30;99.90
22114;DHT22;11223;49.968;9.062;2023-08-07T03:40:06;12.30;99.90
22114;DHT22;11223;49.968;9.062;2023-08-07T03:42:32;12.30;99.90
22114;DHT22;11223;49.968;9.062;2023-08-07T03:44:57;12.30;99.90
22114;DHT22;11223;49.968;9.062;2023-08-07T03:47:23;12.30;99.90
22114;DHT22;11223;49.968;9.062;2023-08-07T03:49:49;12.30;99.90
22114;DHT22;11223;49.968;9.062;2023-08-07T03:52:14;12.30;99.90
22114;DHT22;11223;49.968;9.062;2023-08-07T03:54:40;12.20;99.90
22114;DHT22;11223;49.968;9.062;2023-08-07T03:57:05;12.20;99.90
22114;DHT22;11223;49.968;9.062;2023-08-07T03:59:31;12.20;99.90
22114;DHT22;11223;49.968;9.062;2023-08-07T04:01:57;12.20;99.90
22114;DHT22;11223;49.968;9.062;2023-08-07T04:04:22;12.20;99.90
22114;DHT22;11223;49.968;9.062;2023-08-07T04:06:47;12.20;99.90
22114;DHT22;11223;49.968;9.062;2023-08-07T04:09:13;12.20;99.90
22114;DHT22;11223;49.968;9.062;2023-08-07T04:11:39;12.20;99.90
22114;DHT22;11223;49.968;9.062;2023-08-07T04:14:05;12.20;99.90
22114;DHT22;11223;49.968;9.062;2023-08-07T04:16:30;12.20;99.90
22114;DHT22;11223;49.968;9.062;2023-08-07T04:18:59;12.20;99.90
22114;DHT22;11223;49.968;9.062;2023-08-07T04:21:24;12.30;99.90
22114;DHT22;11223;49.968;9.062;2023-08-07T04:23:50;12.20;99.90
22114;DHT22;11223;49.968;9.062;2023-08-07T04:26:15;12.30;99.90
22114;DHT22;11223;49.968;9.062;2023-08-07T04:28:41;12.30;99.90
22114;DHT22;11223;49.968;9.062;2023-08-07T04:31:06;12.20;99.90
22114;DHT22;11223;49.968;9.062;2023-08-07T04:33:33;12.20;99.90
22114;DHT22;11223;49.968;9.062;2023-08-07T04:35:58;12.20;99.90
22114;DHT22;11223;49.968;9.062;2023-08-07T04:38:23;12.20;99.90
22114;DHT22;11223;49.968;9.062;2023-08-07T04:40:49;12.20;99.90
22114;DHT22;11223;49.968;9.062;2023-08-07T04:43:15;12.20;99.90
22114;DHT22;11223;49.968;9.062;2023-08-07T04:45:42;12.20;99.90
22114;DHT22;11223;49.968;9.062;2023-08-07T04:48:07;12.20;99.90
22114;DHT22;11223;49.968;9.062;2023-08-07T04:50:33;12.30;99.90
22114;DHT22;11223;49.968;9.062;2023-08-07T04:52:59;12.20;99.90
22114;DHT22;11223;49.968;9.062;2023-08-07T04:55:25;12.20;99.90
22114;DHT22;11223;49.968;9.062;2023-08-07T04:57:50;12.20;99.90
22114;DHT22;11223;49.968;9.062;2023-08-07T05:00:19;12.20;99.90
22114;DHT22;11223;49.968;9.062;2023-08-07T05:02:45;12.30;99.90
22114;DHT22;11223;49.968;9.062;2023-08-07T05:05:10;12.30;99.90
22114;DHT22;11223;49.968;9.062;2023-08-07T05:07:36;12.30;99.90
22114;DHT22;11223;49.968;9.062;2023-08-07T05:10:02;12.30;99.90
22114;DHT22;11223;49.968;9.062;2023-08-07T05:12:27;12.30;99.90
22114;DHT22;11223;49.968;9.062;2023-08-07T05:14:53;12.30;99.90
22114;DHT22;11223;49.968;9.062;2023-08-07T05:17:18;12.30;99.90
22114;DHT22;11223;49.968;9.062;2023-08-07T05:19:44;12.30;99.90
22114;DHT22;11223;49.968;9.062;2023-08-07T05:22:09;12.40;99.90
22114;DHT22;11223;49.968;9.062;2023-08-07T05:24:35;12.40;99.90
22114;DHT22;11223;49.968;9.062;2023-08-07T05:27:10;12.40;99.90
22114;DHT22;11223;49.968;9.062;2023-08-07T05:29:35;12.50;99.90
22114;DHT22;11223;49.968;9.062;2023-08-07T05:32:11;12.50;99.90
22114;DHT22;11223;49.968;9.062;2023-08-07T05:34:37;12.50;99.90
22114;DHT22;11223;49.968;9.062;2023-08-07T05:37:03;12.50;99.90
22114;DHT22;11223;49.968;9.062;2023-08-07T05:39:29;12.50;99.90
22114;DHT22;11223;49.968;9.062;2023-08-07T05:41:54;12.50;99.90
22114;DHT22;11223;49.968;9.062;2023-08-07T05:44:23;12.50;99.90
22114;DHT22;11223;49.968;9.062;2023-08-07T05:46:48;12.50;99.90
22114;DHT22;11223;49.968;9.062;2023-08-07T05:49:14;12.50;99.90
22114;DHT22;11223;49.968;9.062;2023-08-07T05:51:39;12.50;99.90
22114;DHT22;11223;49.968;9.062;2023-08-07T05:54:04;12.50;99.90
22114;DHT22;11223;49.968;9.062;2023-08-07T05:56:30;12.60;99.90
22114;DHT22;11223;49.968;9.062;2023-08-07T05:58:55;12.60;99.90
22114;DHT22;11223;49.968;9.062;2023-08-07T06:01:21;12.60;99.90
22114;DHT22;11223;49.968;9.062;2023-08-07T06:03:47;12.60;99.90
22114;DHT22;11223;49.968;9.062;2023-08-07T06:06:12;12.60;99.90
22114;DHT22;11223;49.968;9.062;2023-08-07T06:08:38;12.60;99.90
22114;DHT22;11223;49.968;9.062;2023-08-07T06:11:03;12.60;99.90
22114;DHT22;11223;49.968;9.062;2023-08-07T06:13:30;12.60;99.90
22114;DHT22;11223;49.968;9.062;2023-08-07T06:15:56;12.60;99.90
22114;DHT22;11223;49.968;9.062;2023-08-07T06:18:21;12.60;99.90
22114;DHT22;11223;49.968;9.062;2023-08-07T06:20:47;12.60;99.90
22114;DHT22;11223;49.968;9.062;2023-08-07T06:23:12;12.60;99.90
22114;DHT22;11223;49.968;9.062;2023-08-07T06:25:38;12.60;99.90
22114;DHT22;11223;49.968;9.062;2023-08-07T06:28:03;12.60;99.90
22114;DHT22;11223;49.968;9.062;2023-08-07T06:30:30;12.60;99.90
22114;DHT22;11223;49.968;9.062;2023-08-07T06:32:56;12.60;99.90
22114;DHT22;11223;49.968;9.062;2023-08-07T06:35:21;12.60;99.90
22114;DHT22;11223;49.968;9.062;2023-08-07T06:37:47;12.60;99.90
22114;DHT22;11223;49.968;9.062;2023-08-07T06:40:12;12.70;99.90
22114;DHT22;11223;49.968;9.062;2023-08-07T06:42:38;12.70;99.90
22114;DHT22;11223;49.968;9.062;2023-08-07T06:45:03;12.70;99.90
22114;DHT22;11223;49.968;9.062;2023-08-07T06:47:29;12.70;99.90
22114;DHT22;11223;49.968;9.062;2023-08-07T06:49:54;12.70;99.90
22114;DHT22;11223;49.968;9.062;2023-08-07T06:52:20;12.80;99.90
22114;DHT22;11223;49.968;9.062;2023-08-07T06:54:45;12.80;99.90
22114;DHT22;11223;49.968;9.062;2023-08-07T06:57:11;12.90;99.90
22114;DHT22;11223;49.968;9.062;2023-08-07T06:59:37;12.90;99.90
22114;DHT22;11223;49.968;9.062;2023-08-07T07:02:03;12.90;99.90
22114;DHT22;11223;49.968;9.062;2023-08-07T07:04:29;12.90;99.90
22114;DHT22;11223;49.968;9.062;2023-08-07T07:06:54;12.90;99.90
22114;DHT22;11223;49.968;9.062;2023-08-07T07:09:20;12.90;99.90
22114;DHT22;11223;49.968;9.062;2023-08-07T07:11:46;12.90;99.90
22114;DHT22;11223;49.968;9.062;2023-08-07T07:14:11;12.90;99.90
22114;DHT22;11223;49.968;9.062;2023-08-07T07:16:37;12.90;99.90
22114;DHT22;11223;49.968;9.062;2023-08-07T07:19:03;12.90;99.90
22114;DHT22;11223;49.968;9.062;2023-08-07T07:21:29;12.90;99.90
22114;DHT22;11223;49.968;9.062;2023-08-07T07:23:54;12.90;99.90
22114;DHT22;11223;49.968;9.062;2023-08-07T07:26:20;13.00;99.90
22114;DHT22;11223;49.968;9.062;2023-08-07T07:28:45;13.00;99.90
22114;DHT22;11223;49.968;9.062;2023-08-07T07:31:11;13.00;99.90
22114;DHT22;11223;49.968;9.062;2023-08-07T07:33:37;13.00;99.90
22114;DHT22;11223;49.968;9.062;2023-08-07T07:36:04;13.00;99.90
22114;DHT22;11223;49.968;9.062;2023-08-07T07:38:30;13.00;99.90
22114;DHT22;11223;49.968;9.062;2023-08-07T07:40:56;13.00;99.90
22114;DHT22;11223;49.968;9.062;2023-08-07T07:43:22;13.10;99.90
22114;DHT22;11223;49.968;9.062;2023-08-07T07:45:47;13.10;99.90
22114;DHT22;11223;49.968;9.062;2023-08-07T07:48:13;13.10;99.90
22114;DHT22;11223;49.968;9.062;2023-08-07T07:50:38;13.10;99.90
22114;DHT22;11223;49.968;9.062;2023-08-07T07:53:04;13.10;99.90
22114;DHT22;11223;49.968;9.062;2023-08-07T07:55:29;13.20;99.90
22114;DHT22;11223;49.968;9.062;2023-08-07T07:57:55;13.30;99.90
22114;DHT22;11223;49.968;9.062;2023-08-07T08:00:21;13.30;99.90
22114;DHT22;11223;49.968;9.062;2023-08-07T08:02:47;13.30;99.90
22114;DHT22;11223;49.968;9.062;2023-08-07T08:05:13;13.30;99.90
22114;DHT22;11223;49.968;9.062;2023-08-07T08:07:41;13.30;99.90
22114;DHT22;11223;49.968;9.062;2023-08-07T08:10:07;13.40;99.90
22114;DHT22;11223;49.968;9.062;2023-08-07T08:12:34;13.40;99.90
22114;DHT22;11223;49.968;9.062;2023-08-07T08:14:59;13.40;99.90
22114;DHT22;11223;49.968;9.062;2023-08-07T08:17:25;13.40;99.90
22114;DHT22;11223;49.968;9.062;2023-08-07T08:19:51;13.40;99.90
22114;DHT22;11223;49.968;9.062;2023-08-07T08:22:16;13.50;99.90
22114;DHT22;11223;49.968;9.062;2023-08-07T08:24:42;13.60;99.90
22114;DHT22;11223;49.968;9.062;2023-08-07T08:27:07;13.60;99.90
22114;DHT22;11223;49.968;9.062;2023-08-07T08:29:32;13.60;99.90
22114;DHT22;11223;49.968;9.062;2023-08-07T08:31:58;13.70;99.90
22114;DHT22;11223;49.968;9.062;2023-08-07T08:34:25;13.80;99.90
22114;DHT22;11223;49.968;9.062;2023-08-07T08:36:51;13.90;99.90
22114;DHT22;11223;49.968;9.062;2023-08-07T08:39:16;13.90;99.90
22114;DHT22;11223;49.968;9.062;2023-08-07T08:41:42;14.00;99.90
22114;DHT22;11223;49.968;9.062;2023-08-07T08:44:08;14.10;99.90
22114;DHT22;11223;49.968;9.062;2023-08-07T08:46:36;14.20;99.90
22114;DHT22;11223;49.968;9.062;2023-08-07T08:49:03;14.30;99.90
22114;DHT22;11223;49.968;9.062;2023-08-07T08:51:29;14.40;99.90
22114;DHT22;11223;49.968;9.062;2023-08-07T08:53:55;14.40;99.90
22114;DHT22;11223;49.968;9.062;2023-08-07T08:56:22;14.50;99.90
22114;DHT22;11223;49.968;9.062;2023-08-07T08:58:48;14.50;99.90
22114;DHT22;11223;49.968;9.062;2023-08-07T09:01:14;14.40;99.90
22114;DHT22;11223;49.968;9.062;2023-08-07T09:03:40;14.40;99.90
22114;DHT22;11223;49.968;9.062;2023-08-07T09:06:05;14.40;99.90
22114;DHT22;11223;49.968;9.062;2023-08-07T09:08:32;14.40;99.90
22114;DHT22;11223;49.968;9.062;2023-08-07T09:10:58;14.40;99.90
22114;DHT22;11223;49.968;9.062;2023-08-07T09:13:24;14.30;99.90
22114;DHT22;11223;49.968;9.062;2023-08-07T09:15:50;14.30;99.90
22114;DHT22;11223;49.968;9.062;2023-08-07T09:18:16;14.30;99.90
22114;DHT22;11223;49.968;9.062;2023-08-07T09:20:42;14.30;99.90
22114;DHT22;11223;49.968;9.062;2023-08-07T09:23:08;14.30;99.90
22114;DHT22;11223;49.968;9.062;2023-08-07T09:25:33;14.30;99.90
22114;DHT22;11223;49.968;9.062;2023-08-07T09:28:03;14.30;99.90
22114;DHT22;11223;49.968;9.062;2023-08-07T09:30:29;14.20;99.90
22114;DHT22;11223;49.968;9.062;2023-08-07T09:33:01;14.10;99.90
22114;DHT22;11223;49.968;9.062;2023-08-07T09:35:27;14.10;99.90
22114;DHT22;11223;49.968;9.062;2023-08-07T09:37:53;14.00;99.90
22114;DHT22;11223;49.968;9.062;2023-08-07T09:40:19;13.90;99.90
22114;DHT22;11223;49.968;9.062;2023-08-07T09:42:44;13.90;99.90
22114;DHT22;11223;49.968;9.062;2023-08-07T09:45:21;13.90;99.90
22114;DHT22;11223;49.968;9.062;2023-08-07T09:47:56;13.90;99.90
22114;DHT22;11223;49.968;9.062;2023-08-07T09:50:21;13.90;99.90
22114;DHT22;11223;49.968;9.062;2023-08-07T09:52:50;13.90;99.90
22114;DHT22;11223;49.968;9.062;2023-08-07T09:55:16;13.90;99.90
22114;DHT22;11223;49.968;9.062;2023-08-07T09:57:44;13.90;99.90
22114;DHT22;11223;49.968;9.062;2023-08-07T10:00:10;13.90;99.90
22114;DHT22;11223;49.968;9.062;2023-08-07T10:02:45;13.80;99.90
22114;DHT22;11223;49.968;9.062;2023-08-07T10:05:11;13.90;99.90
22114;DHT22;11223;49.968;9.062;2023-08-07T10:07:38;13.90;99.90
22114;DHT22;11223;49.968;9.062;2023-08-07T10:10:04;13.90;99.90
22114;DHT22;11223;49.968;9.062;2023-08-07T10:12:30;13.90;99.90
22114;DHT22;11223;49.968;9.062;2023-08-07T10:14:56;13.80;99.90
22114;DHT22;11223;49.968;9.062;2023-08-07T10:17:23;13.80;99.90
22114;DHT22;11223;49.968;9.062;2023-08-07T10:19:50;13.80;99.90
22114;DHT22;11223;49.968;9.062;2023-08-07T10:22:16;13.80;99.90
22114;DHT22;11223;49.968;9.062;2023-08-07T10:24:42;13.70;99.90
22114;DHT22;11223;49.968;9.062;2023-08-07T10:27:09;13.80;99.90
22114;DHT22;11223;49.968;9.062;2023-08-07T10:29:35;13.80;99.90
22114;DHT22;11223;49.968;9.062;2023-08-07T10:32:01;13.80;99.90
22114;DHT22;11223;49.968;9.062;2023-08-07T10:34:33;13.80;99.90
22114;DHT22;11223;49.968;9.062;2023-08-07T10:36:58;13.80;99.90
22114;DHT22;11223;49.968;9.062;2023-08-07T10:39:24;13.80;99.90
22114;DHT22;11223;49.968;9.062;2023-08-07T10:41:52;13.90;99.90
22114;DHT22;11223;49.968;9.062;2023-08-07T10:44:21;14.00;99.90
22114;DHT22;11223;49.968;9.062;2023-08-07T10:46:52;14.10;99.90
22114;DHT22;11223;49.968;9.062;2023-08-07T10:52:09;14.30;99.90
22114;DHT22;11223;49.968;9.062;2023-08-07T10:54:45;14.40;99.90
22114;DHT22;11223;49.968;9.062;2023-08-07T10:57:12;14.40;99.90
22114;DHT22;11223;49.968;9.062;2023-08-07T10:59:49;14.40;99.90
22114;DHT22;11223;49.968;9.062;2023-08-07T11:02:22;14.50;99.90
22114;DHT22;11223;49.968;9.062;2023-08-07T11:04:48;14.50;99.90
22114;DHT22;11223;49.968;9.062;2023-08-07T11:07:22;14.50;99.90
22114;DHT22;11223;49.968;9.062;2023-08-07T11:09:48;14.60;99.90
22114;DHT22;11223;49.968;9.062;2023-08-07T11:12:13;14.60;99.90
22114;DHT22;11223;49.968;9.062;2023-08-07T11:14:39;14.60;99.90
22114;DHT22;11223;49.968;9.062;2023-08-07T11:17:06;14.60;99.90
22114;DHT22;11223;49.968;9.062;2023-08-07T11:19:31;14.70;99.90
22114;DHT22;11223;49.968;9.062;2023-08-07T11:21:57;14.60;99.90
22114;DHT22;11223;49.968;9.062;2023-08-07T11:24:22;14.50;99.90
22114;DHT22;11223;49.968;9.062;2023-08-07T11:26:48;14.40;99.90
22114;DHT22;11223;49.968;9.062;2023-08-07T11:29:19;14.50;99.90
22114;DHT22;11223;49.968;9.062;2023-08-07T11:31:45;14.60;99.90
22114;DHT22;11223;49.968;9.062;2023-08-07T11:34:11;14.60;99.90
22114;DHT22;11223;49.968;9.062;2023-08-07T11:36:43;14.70;99.90
22114;DHT22;11223;49.968;9.062;2023-08-07T11:39:09;14.80;99.90
22114;DHT22;11223;49.968;9.062;2023-08-07T11:41:35;14.80;99.90
22114;DHT22;11223;49.968;9.062;2023-08-07T11:44:00;14.80;99.90
22114;DHT22;11223;49.968;9.062;2023-08-07T11:46:26;14.80;99.90
22114;DHT22;11223;49.968;9.062;2023-08-07T11:48:51;14.80;99.90
22114;DHT22;11223;49.968;9.062;2023-08-07T11:51:17;14.80;99.90
22114;DHT22;11223;49.968;9.062;2023-08-07T11:53:45;14.90;99.90
22114;DHT22;11223;49.968;9.062;2023-08-07T11:56:11;14.90;99.90
22114;DHT22;11223;49.968;9.062;2023-08-07T11:58:37;14.90;99.90
22114;DHT22;11223;49.968;9.062;2023-08-07T12:01:03;15.00;99.90
22114;DHT22;11223;49.968;9.062;2023-08-07T12:03:30;15.00;99.90
22114;DHT22;11223;49.968;9.062;2023-08-07T12:05:57;15.00;99.90
22114;DHT22;11223;49.968;9.062;2023-08-07T12:08:22;15.00;99.90
22114;DHT22;11223;49.968;9.062;2023-08-07T12:10:49;14.90;99.90
22114;DHT22;11223;49.968;9.062;2023-08-07T12:13:14;14.90;99.90
22114;DHT22;11223;49.968;9.062;2023-08-07T12:15:41;14.90;99.90
22114;DHT22;11223;49.968;9.062;2023-08-07T12:18:07;14.90;99.90
22114;DHT22;11223;49.968;9.062;2023-08-07T12:20:33;14.90;99.90
22114;DHT22;11223;49.968;9.062;2023-08-07T12:22:58;14.80;99.90
22114;DHT22;11223;49.968;9.062;2023-08-07T12:25:24;14.80;99.90
22114;DHT22;11223;49.968;9.062;2023-08-07T12:27:49;14.80;99.90
22114;DHT22;11223;49.968;9.062;2023-08-07T12:30:15;14.80;99.90
22114;DHT22;11223;49.968;9.062;2023-08-07T12:32:40;14.90;99.90
22114;DHT22;11223;49.968;9.062;2023-08-07T12:35:06;14.90;99.90
22114;DHT22;11223;49.968;9.062;2023-08-07T12:37:34;14.90;99.90
22114;DHT22;11223;49.968;9.062;2023-08-07T12:39:59;14.90;99.90
22114;DHT22;11223;49.968;9.062;2023-08-07T12:42:25;14.90;99.90
22114;DHT22;11223;49.968;9.062;2023-08-07T12:44:50;15.00;99.90
22114;DHT22;11223;49.968;9.062;2023-08-07T12:47:16;15.00;99.90
22114;DHT22;11223;49.968;9.062;2023-08-07T12:49:41;15.10;99.90
22114;DHT22;11223;49.968;9.062;2023-08-07T12:52:07;15.30;99.90
22114;DHT22;11223;49.968;9.062;2023-08-07T12:54:32;15.40;99.90
22114;DHT22;11223;49.968;9.062;2023-08-07T12:56:58;15.50;99.90
22114;DHT22;11223;49.968;9.062;2023-08-07T12:59:23;15.50;99.90
22114;DHT22;11223;49.968;9.062;2023-08-07T13:01:49;15.60;99.90
22114;DHT22;11223;49.968;9.062;2023-08-07T13:04:14;15.70;99.90
22114;DHT22;11223;49.968;9.062;2023-08-07T13:06:40;15.90;99.90
22114;DHT22;11223;49.968;9.062;2023-08-07T13:09:06;15.90;99.90
22114;DHT22;11223;49.968;9.062;2023-08-07T13:11:32;16.00;99.90
22114;DHT22;11223;49.968;9.062;2023-08-07T13:13:57;16.20;99.90
22114;DHT22;11223;49.968;9.062;2023-08-07T13:16:23;16.30;99.90
22114;DHT22;11223;49.968;9.062;2023-08-07T13:18:49;16.40;99.90
22114;DHT22;11223;49.968;9.062;2023-08-07T13:21:15;16.60;99.90
22114;DHT22;11223;49.968;9.062;2023-08-07T13:23:40;16.70;99.90
22114;DHT22;11223;49.968;9.062;2023-08-07T13:26:05;16.80;99.90
22114;DHT22;11223;49.968;9.062;2023-08-07T13:28:31;16.70;99.90
22114;DHT22;11223;49.968;9.062;2023-08-07T13:30:57;16.60;99.90
22114;DHT22;11223;49.968;9.062;2023-08-07T13:33:23;16.40;99.90
22114;DHT22;11223;49.968;9.062;2023-08-07T13:35:49;16.20;99.90
22114;DHT22;11223;49.968;9.062;2023-08-07T13:38:14;16.10;99.90
22114;DHT22;11223;49.968;9.062;2023-08-07T13:40:41;16.00;99.90
22114;DHT22;11223;49.968;9.062;2023-08-07T13:43:09;15.90;99.90
22114;DHT22;11223;49.968;9.062;2023-08-07T13:45:34;16.20;99.90
22114;DHT22;11223;49.968;9.062;2023-08-07T13:48:00;16.40;99.90
22114;DHT22;11223;49.968;9.062;2023-08-07T13:50:26;16.50;99.90
22114;DHT22;11223;49.968;9.062;2023-08-07T13:52:51;16.60;99.90
22114;DHT22;11223;49.968;9.062;2023-08-07T13:55:17;16.70;99.90
22114;DHT22;11223;49.968;9.062;2023-08-07T13:57:42;17.10;99.90
22114;DHT22;11223;49.968;9.062;2023-08-07T14:00:08;17.80;99.90
22114;DHT22;11223;49.968;9.062;2023-08-07T14:02:33;18.80;99.90
22114;DHT22;11223;49.968;9.062;2023-08-07T14:05:00;19.70;99.90
22114;DHT22;11223;49.968;9.062;2023-08-07T14:07:25;20.60;99.90
22114;DHT22;11223;49.968;9.062;2023-08-07T14:09:51;21.20;99.90
22114;DHT22;11223;49.968;9.062;2023-08-07T14:12:16;21.20;99.90
22114;DHT22;11223;49.968;9.062;2023-08-07T14:14:42;21.10;99.90
22114;DHT22;11223;49.968;9.062;2023-08-07T14:17:07;21.00;99.90
22114;DHT22;11223;49.968;9.062;2023-08-07T14:19:33;21.20;99.90
22114;DHT22;11223;49.968;9.062;2023-08-07T14:21:58;21.30;99.90
22114;DHT22;11223;49.968;9.062;2023-08-07T14:24:24;21.40;99.90
22114;DHT22;11223;49.968;9.062;2023-08-07T14:26:49;21.10;99.90
22114;DHT22;11223;49.968;9.062;2023-08-07T14:29:14;21.20;99.90
22114;DHT22;11223;49.968;9.062;2023-08-07T14:31:40;21.60;99.90
22114;DHT22;11223;49.968;9.062;2023-08-07T14:34:05;21.90;99.90
22114;DHT22;11223;49.968;9.062;2023-08-07T14:36:31;22.10;99.90
22114;DHT22;11223;49.968;9.062;2023-08-07T14:38:57;22.50;99.90
22114;DHT22;11223;49.968;9.062;2023-08-07T14:41:22;23.10;99.90
22114;DHT22;11223;49.968;9.062;2023-08-07T14:43:48;23.90;99.90
22114;DHT22;11223;49.968;9.062;2023-08-07T14:46:13;24.50;99.90
22114;DHT22;11223;49.968;9.062;2023-08-07T14:48:39;24.70;99.90
22114;DHT22;11223;49.968;9.062;2023-08-07T14:51:05;25.10;99.90
22114;DHT22;11223;49.968;9.062;2023-08-07T14:53:30;25.40;99.90
22114;DHT22;11223;49.968;9.062;2023-08-07T14:55:56;25.50;99.90
22114;DHT22;11223;49.968;9.062;2023-08-07T14:58:22;25.10;99.90
22114;DHT22;11223;49.968;9.062;2023-08-07T15:00:47;24.30;99.90
22114;DHT22;11223;49.968;9.062;2023-08-07T15:03:14;23.20;99.90
22114;DHT22;11223;49.968;9.062;2023-08-07T15:05:40;22.20;99.90
22114;DHT22;11223;49.968;9.062;2023-08-07T15:08:05;21.40;99.90
22114;DHT22;11223;49.968;9.062;2023-08-07T15:10:31;20.70;99.90
22114;DHT22;11223;49.968;9.062;2023-08-07T15:12:56;20.00;99.90
22114;DHT22;11223;49.968;9.062;2023-08-07T15:15:22;19.70;99.90
22114;DHT22;11223;49.968;9.062;2023-08-07T15:17:47;19.20;99.90
22114;DHT22;11223;49.968;9.062;2023-08-07T15:20:13;18.90;99.90
22114;DHT22;11223;49.968;9.062;2023-08-07T15:22:38;18.60;99.90
22114;DHT22;11223;49.968;9.062;2023-08-07T15:25:06;18.30;99.90
22114;DHT22;11223;49.968;9.062;2023-08-07T15:27:32;18.00;99.90